KAXV

Neil Armstrong Airport

Wapakoneta, Ohio, USA
METAR KAXV 182235Z AUTO 24011G18KT 10SM SCT050 33/21 A2995 RMK AO2
Observed Flight Rules
Jun-18 @ 22:35 UTC (6 minutes ago) Visual Flight Rules
Wind Visibility Clouds
240° at 11 knots
 Gusting to 18 knots
10 miles
  • Scattered at 5,000' AGL
Temperatures Readings
Current 33°C / 91°F
Dewpoint 21°C / 70°F
Humidity 49%
Altimeter 29.95" Hg
Pressure 1014 hPa
Elevation 279
METAR KAXV 182235Z AUTO 24011G18KT 10SM SCT050 33/21 A2995 RMK AO2
Observed Flight Rules
Jun-18 @ 22:35 UTC
(6 minutes ago)
VFR
Wind Visibility
240° at 11 knots
 Gusting to 18 knots
10 miles
Clouds
  • Scattered at 5,000' AGL
Temperature Dewpoint
33°C / 91°F 21°C / 70°F
Humidity Altimeter Pressure
49% 29.95" Hg 1014 hPa